Time;durP1;ratioP1;P1;durP2;ratioP2;P2;SDS_P1;SDS_P2;PMS_P1;PMS_P2;Temp;Humidity;BMP_temperature;BMP_pressure;BME280_temperature;BME280_humidity;BME280_pressure;Samples;Min_cycle;Max_cycle;Signal;HPM_P1;HPM_P2
2022/03/09 00:00:25;;;;;;;4.10;3.42;;;;;;;1.98;46.92;100124.06;4329895;33;34664;-88
2022/03/09 00:02:53;;;;;;;8.00;4.80;;;;;;;1.94;47.22;100119.69;4328917;33;33018;-88
2022/03/09 00:05:25;;;;;;;7.75;4.40;;;;;;;1.83;48.00;100114.25;4327366;33;33886;-87
2022/03/09 00:07:54;;;;;;;8.10;4.30;;;;;;;1.82;48.39;100115.94;4327477;33;34380;-88
2022/03/09 00:10:24;;;;;;;8.77;4.37;;;;;;;1.70;48.68;100113.91;4331297;33;33787;-87
2022/03/09 00:12:53;;;;;;;7.43;4.00;;;;;;;1.78;48.61;100113.25;4330135;33;32177;-88
2022/03/09 00:15:22;;;;;;;7.05;3.90;;;;;;;1.73;48.77;100122.50;4328125;33;34134;-87
2022/03/09 00:17:52;;;;;;;6.37;4.28;;;;;;;1.84;48.28;100123.69;4328485;33;33808;-87
2022/03/09 00:20:21;;;;;;;7.57;4.20;;;;;;;1.94;47.86;100124.81;4327578;33;34666;-88
2022/03/09 00:22:50;;;;;;;7.80;3.85;;;;;;;2.05;47.48;100129.38;4330805;33;34542;-88
2022/03/09 00:25:19;;;;;;;10.20;4.62;;;;;;;1.95;47.39;100124.84;4331686;33;33299;-88
2022/03/09 00:27:48;;;;;;;6.97;3.87;;;;;;;1.93;47.21;100126.47;4328656;33;33971;-88
2022/03/09 00:30:17;;;;;;;6.80;3.90;;;;;;;1.86;47.43;100129.69;4328516;33;34894;-87
2022/03/09 00:32:46;;;;;;;9.32;3.83;;;;;;;1.91;47.33;100121.34;4330274;33;34536;-88
2022/03/09 00:35:16;;;;;;;4.45;3.33;;;;;;;1.87;47.31;100124.63;4329557;33;34322;-88
2022/03/09 00:37:45;;;;;;;11.17;4.73;;;;;;;1.67;47.80;100133.41;4332500;33;34080;-88
2022/03/09 00:40:14;;;;;;;8.13;4.50;;;;;;;1.80;47.74;100124.41;4329172;33;34785;-88
2022/03/09 00:42:42;;;;;;;7.87;3.72;;;;;;;1.90;47.55;100131.50;4333272;33;35335;-88
2022/03/09 00:45:12;;;;;;;5.25;4.00;;;;;;;2.07;47.28;100119.19;4329598;33;33411;-88
2022/03/09 00:47:41;;;;;;;6.85;3.90;;;;;;;2.04;47.04;100117.44;4329677;33;33707;-88
2022/03/09 00:50:10;;;;;;;7.10;3.80;;;;;;;1.94;47.20;100120.56;4319500;33;33212;-88
2022/03/09 00:52:40;;;;;;;6.68;3.78;;;;;;;1.90;47.34;100119.59;4329325;33;33368;-88
2022/03/09 00:55:13;;;;;;;4.70;3.87;;;;;;;1.91;47.28;100107.69;4330903;33;33859;-88
2022/03/09 00:57:43;;;;;;;5.62;3.40;;;;;;;1.89;47.33;100110.19;4329904;33;33767;-88
2022/03/09 01:00:12;;;;;;;6.57;3.90;;;;;;;2.03;47.22;100113.16;4330425;33;34016;-88
2022/03/09 01:02:42;;;;;;;7.57;4.45;;;;;;;2.00;47.12;100109.62;4330377;33;33744;-87
2022/03/09 01:05:12;;;;;;;8.20;3.62;;;;;;;1.85;47.62;100104.94;4332222;33;32249;-88
2022/03/09 01:07:44;;;;;;;7.40;3.83;;;;;;;1.91;47.49;100103.44;4329126;33;33828;-88
2022/03/09 01:10:13;;;;;;;6.35;3.53;;;;;;;1.78;47.64;100098.78;4329840;33;34535;-89
2022/03/09 01:12:45;;;;;;;5.93;3.58;;;;;;;1.92;47.37;100101.72;4328038;33;34287;-88
2022/03/09 01:15:14;;;;;;;6.28;3.67;;;;;;;2.12;46.99;100098.03;4328180;33;33721;-88
2022/03/09 01:17:45;;;;;;;7.78;4.37;;;;;;;1.94;47.46;100086.44;4332291;33;33796;-88
2022/03/09 01:20:14;;;;;;;9.88;4.00;;;;;;;2.13;46.88;100083.56;4327668;33;34620;-88
2022/03/09 01:22:48;;;;;;;4.47;3.10;;;;;;;2.39;46.12;100080.81;4329322;33;33201;-88
2022/03/09 01:25:16;;;;;;;3.72;3.20;;;;;;;2.21;46.45;100081.19;4330183;33;33237;-88
2022/03/09 01:27:48;;;;;;;;;;;;;;;2.20;46.53;100089.69;4328045;33;33643;-88
2022/03/09 01:30:17;;;;;;;7.32;3.97;;;;;;;2.04;47.00;100088.41;4331111;33;34075;-89
2022/03/09 01:32:45;;;;;;;6.05;3.58;;;;;;;2.17;46.71;100089.59;4330462;33;33985;-88
2022/03/09 01:35:14;;;;;;;6.37;3.55;;;;;;;2.11;46.72;100091.19;4328432;33;33438;-88
2022/03/09 01:37:45;;;;;;;9.48;4.60;;;;;;;2.04;47.04;100083.28;4323633;33;34360;-88
2022/03/09 01:40:16;;;;;;;5.40;3.65;;;;;;;1.89;47.77;100091.41;4323450;33;34050;-88
2022/03/09 01:42:45;;;;;;;9.70;4.22;;;;;;;1.97;47.16;100089.94;4340226;33;34133;-88
2022/03/09 01:45:15;;;;;;;5.93;3.25;;;;;;;1.97;47.21;100097.59;4333899;33;34163;-88
2022/03/09 01:47:44;;;;;;;5.00;3.55;;;;;;;2.02;47.12;100101.16;4327852;33;33670;-88
2022/03/09 01:50:13;;;;;;;8.68;4.37;;;;;;;1.93;47.31;100108.56;4329133;33;34512;-88
2022/03/09 01:52:42;;;;;;;8.27;4.12;;;;;;;2.21;46.54;100114.47;4329103;33;34289;-88
2022/03/09 01:55:12;;;;;;;5.05;3.40;;;;;;;2.06;47.08;100107.25;4328985;33;34005;-88
2022/03/09 01:57:42;;;;;;;5.32;3.42;;;;;;;2.06;47.02;100108.09;4332909;33;33952;-88
2022/03/09 02:00:12;;;;;;;5.80;3.70;;;;;;;2.11;47.07;100116.78;4328685;33;34889;-88
2022/03/09 02:02:41;;;;;;;7.03;4.67;;;;;;;2.02;47.46;100119.06;4337472;33;32900;-88
2022/03/09 02:05:11;;;;;;;7.82;4.05;;;;;;;1.83;47.94;100116.81;4331986;33;34788;-89
2022/03/09 02:10:28;;;;;;;7.82;4.07;;;;;;;2.13;47.39;100107.44;4327139;33;34064;-88
2022/03/09 02:12:58;;;;;;;5.22;3.28;;;;;;;2.23;47.01;100113.69;4331189;33;33834;-88
2022/03/09 02:15:27;;;;;;;6.55;4.00;;;;;;;2.15;47.13;100117.75;4328054;33;32379;-89
2022/03/09 02:17:56;;;;;;;8.02;3.95;;;;;;;2.00;47.61;100115.59;4328709;33;33843;-89
2022/03/09 02:20:25;;;;;;;6.30;3.92;;;;;;;2.05;47.38;100118.28;4328519;33;34907;-89
2022/03/09 02:22:56;;;;;;;5.50;3.75;;;;;;;2.11;46.98;100115.91;4328052;33;33836;-88
2022/03/09 02:25:24;;;;;;;4.95;3.75;;;;;;;2.31;46.55;100106.22;4331304;33;33650;-89
2022/03/09 02:27:53;;;;;;;5.22;3.45;;;;;;;2.37;46.13;100108.94;4327798;33;33915;-89
2022/03/09 02:30:22;;;;;;;6.87;3.90;;;;;;;2.08;47.08;100108.16;4327831;33;34360;-89
2022/03/09 02:32:51;;;;;;;9.10;3.85;;;;;;;2.08;47.14;100113.28;4327667;33;33771;-89
2022/03/09 02:35:20;;;;;;;6.43;3.78;;;;;;;2.02;47.27;100111.37;4328001;33;33474;-89
2022/03/09 02:37:49;;;;;;;7.37;3.80;;;;;;;2.11;47.31;100110.78;4327709;33;33761;-89
2022/03/09 02:40:19;;;;;;;4.22;3.05;;;;;;;1.98;47.38;100109.59;4325052;33;33047;-88
2022/03/09 02:42:48;;;;;;;7.85;4.55;;;;;;;1.83;47.92;100114.25;4328346;33;33736;-88
2022/03/09 02:45:17;;;;;;;7.12;4.10;;;;;;;1.95;47.79;100113.75;4329665;33;33438;-89
2022/03/09 02:47:47;;;;;;;7.95;4.32;;;;;;;2.00;47.73;100113.03;4330748;33;33726;-88
2022/03/09 02:50:16;;;;;;;7.12;3.40;;;;;;;1.97;47.63;100115.50;4318427;33;34131;-89
2022/03/09 02:52:45;;;;;;;7.10;3.75;;;;;;;2.18;47.29;100116.94;4332950;33;33028;-89
2022/03/09 02:55:15;;;;;;;6.75;3.90;;;;;;;2.21;47.23;100123.00;4330077;33;33219;-89
2022/03/09 02:57:45;;;;;;;4.90;3.30;;;;;;;2.16;46.92;100126.28;4330624;33;33876;-89
2022/03/09 03:00:14;;;;;;;7.87;4.07;;;;;;;2.05;47.59;100126.81;4329008;33;33694;-89
2022/03/09 03:02:43;;;;;;;5.80;3.75;;;;;;;2.32;47.24;100123.28;4327356;33;33531;-88
2022/03/09 03:05:12;;;;;;;5.05;2.85;;;;;;;2.37;47.29;100126.88;4318079;33;31529;-89
2022/03/09 03:07:41;;;;;;;6.15;4.70;;;;;;;2.33;47.18;100113.09;4329789;33;33545;-88
2022/03/09 03:10:10;;;;;;;8.75;4.70;;;;;;;2.30;47.37;100105.34;4329531;33;33604;-89
2022/03/09 03:12:39;;;;;;;6.95;3.58;;;;;;;2.27;47.19;100102.72;4330086;33;33288;-89
2022/03/09 03:15:10;;;;;;;4.50;3.28;;;;;;;2.41;47.14;100094.50;4324263;33;33246;-89
2022/03/09 03:17:39;;;;;;;7.93;4.05;;;;;;;2.31;47.09;100081.47;4330945;33;33797;-90
2022/03/09 03:20:09;;;;;;;4.72;2.92;;;;;;;2.36;46.75;100089.28;4332087;33;33971;-89
2022/03/09 03:22:38;;;;;;;5.65;3.30;;;;;;;2.27;46.65;100083.91;4331893;33;33535;-89
2022/03/09 03:25:07;;;;;;;5.12;3.12;;;;;;;2.40;46.63;100096.22;4323461;33;32258;-89
2022/03/09 03:27:36;;;;;;;6.80;3.45;;;;;;;2.43;46.51;100101.41;4331665;33;33846;-89
2022/03/09 03:30:06;;;;;;;6.37;3.62;;;;;;;2.30;46.84;100094.25;4329244;33;34873;-89
2022/03/09 03:32:36;;;;;;;6.18;3.67;;;;;;;2.31;46.87;100095.97;4334168;33;33675;-89
2022/03/09 03:35:06;;;;;;;5.15;2.92;;;;;;;2.50;46.47;100092.19;4329561;33;33223;-89
2022/03/09 03:37:35;;;;;;;7.05;3.17;;;;;;;2.47;46.62;100095.53;4329901;33;33762;-89
2022/03/09 03:40:04;;;;;;;6.50;3.05;;;;;;;2.43;46.78;100095.44;4329479;33;33865;-89
2022/03/09 03:42:33;;;;;;;4.55;3.58;;;;;;;2.43;46.81;100096.28;4330303;33;33423;-89
2022/03/09 03:45:02;;;;;;;5.20;3.53;;;;;;;2.42;46.75;100098.81;4332522;33;34139;-89
2022/03/09 03:47:30;;;;;;;8.02;3.90;;;;;;;2.30;47.22;100096.81;4329781;33;33452;-89
2022/03/09 03:50:00;;;;;;;8.82;4.12;;;;;;;2.51;47.06;100101.59;4330116;33;34753;-89
2022/03/09 03:52:30;;;;;;;5.32;3.70;;;;;;;2.54;46.89;100101.69;4330516;33;33577;-89
2022/03/09 03:54:59;;;;;;;6.62;4.18;;;;;;;2.55;46.95;100101.72;4327795;33;34122;-89
2022/03/09 03:57:27;;;;;;;7.65;4.40;;;;;;;2.59;46.90;100112.94;4331820;33;33730;-89
2022/03/09 03:59:57;;;;;;;6.72;4.07;;;;;;;2.56;47.04;100108.59;4330632;33;34717;-89
2022/03/09 04:02:26;;;;;;;7.37;4.25;;;;;;;2.62;46.74;100113.00;4327543;33;34450;-89
2022/03/09 04:04:55;;;;;;;8.10;3.78;;;;;;;2.52;46.70;100111.91;4329595;33;34303;-90
2022/03/09 04:07:25;;;;;;;8.75;4.03;;;;;;;2.68;46.28;100105.47;4329352;33;34558;-89
2022/03/09 04:09:54;;;;;;;5.55;3.70;;;;;;;2.57;46.31;100109.47;4329591;33;33605;-89
2022/03/09 04:12:23;;;;;;;5.65;3.87;;;;;;;2.38;47.21;100102.13;4332396;33;34468;-89
2022/03/09 04:14:52;;;;;;;8.48;3.35;;;;;;;2.25;47.33;100099.25;4316058;33;32009;-89
2022/03/09 04:17:21;;;;;;;6.97;3.78;;;;;;;2.46;47.21;100096.34;4328099;33;33449;-89
2022/03/09 04:19:50;;;;;;;7.35;4.03;;;;;;;2.46;47.11;100090.38;4329802;33;33999;-89
2022/03/09 04:22:19;;;;;;;9.48;4.75;;;;;;;2.35;47.48;100090.09;4327904;33;34547;-89
2022/03/09 04:24:49;;;;;;;7.80;3.70;;;;;;;2.48;47.20;100088.72;4331842;33;33272;-89
2022/03/09 04:27:17;;;;;;;10.77;4.87;;;;;;;2.34;47.44;100091.81;4329477;33;32712;-90
2022/03/09 04:29:46;;;;;;;7.75;4.10;;;;;;;2.49;46.74;100093.00;4330043;33;33688;-89
2022/03/09 04:32:15;;;;;;;6.65;3.83;;;;;;;2.37;47.14;100095.25;4328665;33;33755;-90
2022/03/09 04:34:44;;;;;;;6.90;3.30;;;;;;;2.22;47.38;100093.16;4332409;33;33456;-90
2022/03/09 04:37:14;;;;;;;7.13;3.73;;;;;;;2.05;47.93;100096.12;4329353;33;33827;-90
2022/03/09 04:39:43;;;;;;;5.53;3.33;;;;;;;2.23;47.58;100100.03;4328989;33;33530;-90
2022/03/09 04:42:13;;;;;;;6.90;3.45;;;;;;;2.46;47.02;100101.47;4328786;33;33730;-89
2022/03/09 04:44:42;;;;;;;8.50;4.22;;;;;;;2.11;47.68;100105.69;4328933;33;34059;-89
2022/03/09 04:47:13;;;;;;;5.75;3.47;;;;;;;2.42;47.03;100104.81;4331775;33;33494;-90
2022/03/09 04:49:42;;;;;;;8.13;4.53;;;;;;;2.41;47.20;100095.38;4328913;33;33945;-89
2022/03/09 04:52:13;;;;;;;9.52;3.90;;;;;;;2.48;47.20;100096.41;4328519;33;34393;-90
2022/03/09 04:54:44;;;;;;;7.40;3.65;;;;;;;2.38;47.59;100097.00;4338125;33;34104;-90
2022/03/09 04:57:17;;;;;;;7.60;3.62;;;;;;;2.47;47.65;100110.91;4331310;33;34535;-89
2022/03/09 04:59:46;;;;;;;8.85;4.22;;;;;;;2.43;47.78;100113.34;4328361;33;33403;-90
2022/03/09 05:02:15;;;;;;;7.45;3.90;;;;;;;2.50;47.34;100112.69;4328226;33;34601;-90
2022/03/09 05:04:45;;;;;;;5.78;3.40;;;;;;;2.50;47.36;100115.25;4328890;33;33457;-89
2022/03/09 05:07:14;;;;;;;6.18;4.07;;;;;;;2.34;47.67;100096.03;4327575;33;33818;-89
2022/03/09 05:09:43;;;;;;;6.00;4.03;;;;;;;2.24;48.05;100099.19;4332052;33;33611;-90
2022/03/09 05:12:11;;;;;;;6.70;3.67;;;;;;;2.30;48.40;100081.44;4327792;33;34156;-90
2022/03/09 05:14:42;;;;;;;6.03;3.47;;;;;;;2.23;48.47;100085.53;4328679;33;33040;-90
2022/03/09 05:17:10;;;;;;;8.25;4.18;;;;;;;2.24;48.38;100083.81;4329230;33;33603;-90
2022/03/09 05:19:39;;;;;;;7.12;4.10;;;;;;;2.30;48.19;100089.13;4331911;33;33948;-90
2022/03/09 05:22:08;;;;;;;5.62;3.55;;;;;;;2.40;47.92;100093.66;4329755;33;34847;-89
2022/03/09 05:24:46;;;;;;;10.30;3.80;;;;;;;2.28;48.02;100101.00;4328541;33;34234;-91
2022/03/09 05:27:15;;;;;;;6.60;3.10;;;;;;;2.49;47.57;100101.59;4326862;33;33968;-90
2022/03/09 05:29:45;;;;;;;7.07;3.78;;;;;;;2.45;47.44;100101.47;4328418;33;33720;-90
2022/03/09 05:32:13;;;;;;;5.75;4.18;;;;;;;2.45;47.60;100101.47;4328912;33;33519;-90
2022/03/09 05:34:42;;;;;;;10.35;5.10;;;;;;;2.38;47.69;100102.13;4330675;33;31440;-90
2022/03/09 05:37:11;;;;;;;6.37;3.50;;;;;;;2.41;47.87;100107.31;4326975;33;34344;-90
2022/03/09 05:39:41;;;;;;;8.25;3.87;;;;;;;2.45;47.78;100104.87;4326541;33;33654;-91
2022/03/09 05:42:13;;;;;;;5.93;3.42;;;;;;;2.62;47.33;100099.34;4320251;33;34106;-90
2022/03/09 05:44:42;;;;;;;5.57;3.20;;;;;;;2.58;47.49;100106.06;4334067;33;33359;-91
2022/03/09 05:47:31;;;;;;;7.87;3.95;;;;;;;2.83;46.90;100102.44;4326040;33;33868;-90
2022/03/09 05:50:00;;;;;;;5.75;3.42;;;;;;;2.78;46.83;100101.47;4336704;33;34289;-90
2022/03/09 05:52:29;;;;;;;7.60;3.58;;;;;;;3.03;46.11;100109.72;4327828;33;34439;-90
2022/03/09 05:55:16;;;;;;;5.18;3.22;;;;;;;2.89;46.50;100123.06;4335289;33;34044;-90
2022/03/09 05:57:47;;;;;;;9.50;4.15;;;;;;;2.93;46.73;100136.84;4327472;33;34152;-91
2022/03/09 06:00:17;;;;;;;4.28;3.42;;;;;;;3.02;46.38;100137.06;4327075;33;34849;-91
2022/03/09 06:02:52;;;;;;;5.75;3.90;;;;;;;3.07;46.46;100144.84;4326282;33;33655;-92
2022/03/09 06:05:21;;;;;;;8.20;4.40;;;;;;;3.26;45.78;100154.72;4330760;33;31832;-93
2022/03/09 06:07:52;;;;;;;7.37;4.37;;;;;;;3.25;45.90;100162.37;4332714;33;34538;-92
2022/03/09 06:10:20;;;;;;;5.82;3.47;;;;;;;3.49;45.30;100169.78;4315341;33;33642;-91
2022/03/09 06:12:51;;;;;;;4.50;3.45;;;;;;;3.46;44.89;100167.16;4327092;33;32935;-90
2022/03/09 06:15:20;;;;;;;4.97;3.35;;;;;;;3.31;45.25;100171.09;4325733;33;33608;-91
2022/03/09 06:17:53;;;;;;;10.30;4.55;;;;;;;3.16;45.90;100163.88;4329506;33;34114;-91
2022/03/09 06:20:25;;;;;;;8.13;4.00;;;;;;;3.27;45.67;100165.84;4327324;33;34175;-92
2022/03/09 06:22:54;;;;;;;7.55;3.80;;;;;;;3.19;45.78;100165.69;4329035;33;33712;-92
2022/03/09 06:25:23;;;;;;;4.70;3.35;;;;;;;3.39;45.82;100167.00;4330042;33;33668;-92
2022/03/09 06:27:55;;;;;;;5.28;3.70;;;;;;;3.56;44.91;100169.09;4328197;33;33775;-92
2022/03/09 06:30:28;;;;;;;7.53;3.80;;;;;;;3.66;44.84;100170.16;4327229;33;33925;-91
2022/03/09 06:32:58;;;;;;;5.87;4.12;;;;;;;3.35;45.28;100162.63;4330458;33;33408;-91
2022/03/09 06:35:27;;;;;;;12.00;4.78;;;;;;;3.39;45.30;100171.28;4314089;33;34695;-92
2022/03/09 06:37:58;;;;;;;8.02;4.25;;;;;;;3.20;45.54;100172.53;4313086;33;31987;-92
2022/03/09 06:40:27;;;;;;;6.55;3.60;;;;;;;3.33;45.55;100165.97;4325535;33;33576;-92
2022/03/09 06:42:59;;;;;;;8.18;3.87;;;;;;;3.28;45.58;100171.00;4324617;33;34038;-93
2022/03/09 06:45:28;;;;;;;9.55;4.00;;;;;;;3.17;45.79;100170.75;4325147;33;34715;-92
2022/03/09 06:47:58;;;;;;;8.68;4.50;;;;;;;3.08;46.20;100177.34;4319629;33;33071;-91
2022/03/09 06:50:27;;;;;;;6.95;3.85;;;;;;;3.26;45.71;100176.94;4322588;33;33230;-92
2022/03/09 06:52:56;;;;;;;8.25;4.37;;;;;;;3.19;46.05;100173.38;4314651;33;32825;-92
2022/03/09 06:55:25;;;;;;;10.02;4.40;;;;;;;3.38;45.61;100170.41;4330958;33;33296;-93
2022/03/09 06:57:54;;;;;;;6.55;4.45;;;;;;;3.25;45.83;100172.63;4330777;33;34293;-93
2022/03/09 07:00:23;;;;;;;6.03;3.37;;;;;;;3.26;45.97;100177.78;4326971;33;34106;-92
2022/03/09 07:02:56;;;;;;;6.40;3.83;;;;;;;3.54;45.83;100178.44;4329481;33;34232;-92
2022/03/09 07:05:27;;;;;;;4.70;3.55;;;;;;;3.63;45.25;100187.22;4314347;33;32492;-93
2022/03/09 07:07:55;;;;;;;6.60;4.10;;;;;;;3.74;45.41;100184.03;4313320;33;32398;-94
2022/03/09 07:10:24;;;;;;;7.32;3.97;;;;;;;3.77;44.99;100176.37;4320122;33;33736;-94
2022/03/09 07:12:54;;;;;;;6.68;4.30;;;;;;;3.40;45.82;100184.13;4317053;33;33179;-93
2022/03/09 07:15:23;;;;;;;11.65;3.78;;;;;;;3.26;46.84;100185.47;4329225;33;32900;-94
2022/03/09 07:17:53;;;;;;;7.13;4.63;;;;;;;3.52;45.84;100187.81;4327871;33;34114;-93
2022/03/09 07:20:23;;;;;;;12.82;4.50;;;;;;;3.52;46.44;100195.50;4329436;33;33937;-95
2022/03/09 07:22:57;;;;;;;6.57;4.00;;;;;;;3.44;46.46;100200.47;4302594;33;33201;-92
2022/03/09 07:25:27;;;;;;;;;;;;;;;3.62;46.07;100200.91;4330088;33;32771;-92
2022/03/09 07:28:06;;;;;;;6.93;4.70;;;;;;;3.35;46.49;100211.34;4332536;33;34892;-94
2022/03/09 07:30:35;;;;;;;8.25;4.60;;;;;;;3.03;47.55;100210.56;4329014;33;33744;-93
2022/03/09 07:33:04;;;;;;;5.87;4.00;;;;;;;3.12;47.69;100217.63;4302903;33;32519;-93
2022/03/09 07:35:33;;;;;;;6.85;4.25;;;;;;;3.46;46.71;100214.19;4328518;33;34248;-92
2022/03/09 07:38:05;;;;;;;6.43;4.50;;;;;;;3.38;47.15;100208.88;4329002;33;33722;-91
2022/03/09 07:40:35;;;;;;;6.97;4.37;;;;;;;3.74;46.46;100199.41;4331496;33;32813;-94
2022/03/09 07:43:06;;;;;;;7.60;4.43;;;;;;;3.66;46.78;100180.44;4328130;33;32775;-92
2022/03/09 07:45:43;;;;;;;7.15;4.20;;;;;;;3.61;47.03;100168.34;4324979;33;32383;-94
2022/03/09 07:48:15;;;;;;;7.32;4.82;;;;;;;4.04;45.62;100160.72;4328816;33;34662;-93
2022/03/09 07:50:45;;;;;;;7.43;4.68;;;;;;;4.09;45.69;100156.56;4334326;33;35162;-94
2022/03/09 07:53:42;;;;;;;8.75;4.75;;;;;;;4.34;44.97;100164.75;4332948;33;35106;-93
2022/03/09 07:56:12;;;;;;;9.40;5.28;;;;;;;4.17;45.25;100165.28;4330440;33;33994;-93
2022/03/09 07:58:45;;;;;;;9.27;4.15;;;;;;;3.89;45.95;100179.25;4319319;33;34054;-95
2022/03/09 08:01:17;;;;;;;11.63;5.70;;;;;;;3.94;46.31;100169.94;4329333;33;34474;-93
2022/03/09 08:03:46;;;;;;;6.47;4.93;;;;;;;3.57;47.19;100176.81;4316513;33;34875;-94
2022/03/09 08:06:15;;;;;;;6.82;4.47;;;;;;;3.39;48.00;100174.69;4318928;33;32790;-92
2022/03/09 08:08:47;;;;;;;11.10;6.78;;;;;;;3.73;47.45;100177.19;4328538;33;34635;-93
2022/03/09 08:11:16;;;;;;;8.30;4.53;;;;;;;3.80;47.29;100169.63;4330095;33;35724;-94
2022/03/09 08:13:45;;;;;;;12.18;5.57;;;;;;;4.03;46.84;100179.53;4319281;33;32802;-93
2022/03/09 08:16:14;;;;;;;10.85;5.53;;;;;;;3.98;47.07;100173.44;4329169;33;33169;-93
2022/03/09 08:18:43;;;;;;;10.50;5.22;;;;;;;4.19;46.89;100175.59;4328541;33;34004;-93
2022/03/09 08:21:12;;;;;;;9.07;4.60;;;;;;;4.32;46.37;100169.84;4313139;33;33977;-93
2022/03/09 08:23:41;;;;;;;8.15;4.80;;;;;;;4.23;46.40;100167.13;4318581;33;33215;-94
2022/03/09 08:26:15;;;;;;;7.30;4.55;;;;;;;4.47;45.79;100171.88;4329104;33;32207;-92
2022/03/09 08:28:46;;;;;;;9.75;4.62;;;;;;;4.33;46.02;100168.16;4323501;33;33004;-92
2022/03/09 08:31:16;;;;;;;10.38;5.12;;;;;;;4.18;46.85;100150.72;4327231;33;33432;-94
2022/03/09 08:33:47;;;;;;;8.10;4.55;;;;;;;4.37;46.39;100147.69;4329187;33;35977;-92
2022/03/09 08:36:16;;;;;;;7.28;4.53;;;;;;;4.28;46.44;100153.53;4330553;33;32482;-92
2022/03/09 08:38:45;;;;;;;9.75;5.20;;;;;;;4.22;46.83;100155.94;4332017;33;34184;-93
2022/03/09 08:41:24;;;;;;;8.18;4.72;;;;;;;4.30;47.05;100151.00;4328537;33;34676;-93
2022/03/09 08:44:12;;;;;;;9.95;5.57;;;;;;;4.36;46.93;100143.38;4328247;33;33665;-94
2022/03/09 08:46:42;;;;;;;9.35;4.97;;;;;;;4.88;45.47;100153.72;4324316;33;32420;-93
2022/03/09 08:49:11;;;;;;;9.07;4.78;;;;;;;5.14;45.14;100159.31;4322032;33;33066;-92
2022/03/09 08:54:28;;;;;;;8.18;4.18;;;;;;;5.35;44.82;100139.09;4327722;33;35031;-94
2022/03/09 08:57:02;;;;;;;7.55;4.30;;;;;;;5.41;44.63;100140.88;4338467;33;32866;-93
2022/03/09 08:59:33;;;;;;;6.87;4.15;;;;;;;5.40;44.74;100140.88;4326856;33;34003;-95
2022/03/09 09:02:03;;;;;;;8.18;4.82;;;;;;;5.48;44.45;100136.69;4311043;33;34397;-93
2022/03/09 09:04:40;;;;;;;7.50;4.60;;;;;;;5.50;44.49;100138.44;4325457;33;33316;-95
2022/03/09 09:07:12;;;;;;;6.93;4.30;;;;;;;5.78;43.54;100138.84;4311633;33;33463;-93
2022/03/09 09:09:44;;;;;;;9.15;5.03;;;;;;;5.64;44.10;100142.94;4326342;33;33890;-93
2022/03/09 09:15:19;;;;;;;7.50;4.53;;;;;;;5.90;43.32;100125.28;4329629;33;33866;-94
2022/03/09 09:17:48;;;;;;;8.80;4.95;;;;;;;5.81;43.41;100120.00;4330344;33;33946;-93
2022/03/09 09:20:37;;;;;;;7.22;4.50;;;;;;;5.96;43.54;100122.78;4321936;33;36019;-93
2022/03/09 09:23:10;;;;;;;7.07;4.53;;;;;;;5.90;43.72;100115.81;4326726;33;34720;-94
2022/03/09 09:25:40;;;;;;;6.93;3.90;;;;;;;6.02;43.86;100116.84;4321732;33;34500;-94
2022/03/09 09:28:10;;;;;;;8.48;4.70;;;;;;;6.19;42.69;100116.19;4324557;33;33689;-94
2022/03/09 09:30:42;;;;;;;6.65;4.25;;;;;;;5.97;43.85;100122.81;4335408;33;34283;-94
2022/03/09 09:33:17;;;;;;;5.35;3.53;;;;;;;6.00;43.41;100126.28;4312187;33;32657;-93
2022/03/09 09:35:49;;;;;;;;;;;;;;;5.83;43.82;100113.16;4320877;33;32772;-94
2022/03/09 09:38:21;;;;;;;10.57;4.53;;;;;;;6.05;43.98;100122.03;4309721;33;32807;-92
2022/03/09 09:40:55;;;;;;;8.85;5.28;;;;;;;5.96;43.77;100113.34;4322580;33;34476;-93
2022/03/09 09:43:27;;;;;;;8.80;4.90;;;;;;;6.03;44.04;100119.44;4323791;33;33817;-92
2022/03/09 09:45:57;;;;;;;;;;;;;;;6.07;44.23;100121.22;4325689;33;33879;-93
2022/03/09 09:48:25;;;;;;;7.00;3.83;;;;;;;6.58;42.65;100112.31;4324240;33;33896;-93
2022/03/09 09:51:01;;;;;;;12.32;5.20;;;;;;;6.47;42.76;100120.78;4309879;33;33038;-92
2022/03/09 09:53:33;;;;;;;6.50;4.10;;;;;;;6.29;43.23;100124.03;4327778;33;32545;-93
2022/03/09 09:56:03;;;;;;;7.93;3.70;;;;;;;6.63;42.80;100122.69;4328211;33;32740;-93
2022/03/09 09:58:37;;;;;;;6.50;4.40;;;;;;;6.89;42.46;100122.06;4328206;33;34241;-93
2022/03/09 10:01:06;;;;;;;6.12;3.25;;;;;;;6.89;42.45;100115.19;4310485;33;33331;-93
2022/03/09 10:03:37;;;;;;;6.93;4.03;;;;;;;7.12;41.95;100117.94;4324945;33;33642;-96
2022/03/09 10:06:06;;;;;;;6.90;4.75;;;;;;;6.74;42.21;100112.44;4312136;33;33840;-93
2022/03/09 10:08:38;;;;;;;8.50;4.43;;;;;;;6.70;42.40;100115.88;4311347;33;34039;-92
2022/03/09 10:11:09;;;;;;;6.10;3.95;;;;;;;6.77;42.34;100115.09;4321746;33;32505;-93
2022/03/09 10:13:40;;;;;;;;;;;;;;;6.66;42.59;100111.53;4312042;33;181938;-94
2022/03/09 10:16:18;;;;;;;7.75;3.95;;;;;;;6.52;42.93;100104.50;4326834;33;34222;-95
2022/03/09 10:18:53;;;;;;;6.10;3.78;;;;;;;7.20;41.80;100100.81;4323075;33;33849;-93
2022/03/09 10:21:26;;;;;;;7.90;3.03;;;;;;;7.51;40.88;100085.50;4326658;33;34230;-92
2022/03/09 10:24:01;;;;;;;6.62;3.75;;;;;;;7.42;41.00;100091.50;4332326;33;35484;-91
2022/03/09 10:26:45;;;;;;;7.25;3.35;;;;;;;7.46;41.29;100100.09;4315632;33;34561;-93
2022/03/09 10:29:19;;;;;;;5.35;3.67;;;;;;;7.48;41.33;100100.97;4322543;33;33763;-92
2022/03/09 10:32:05;;;;;;;6.50;3.67;;;;;;;7.62;41.01;100094.19;4312214;33;34184;-93
2022/03/09 10:34:37;;;;;;;5.90;3.37;;;;;;;7.56;41.19;100088.97;4318773;33;33914;-93
2022/03/09 10:37:06;;;;;;;;;;;;;;;7.68;41.40;100083.00;4326403;33;34475;-92
2022/03/09 10:39:39;;;;;;;6.32;3.47;;;;;;;8.08;40.64;100080.59;4322776;33;34189;-93
2022/03/09 10:42:27;;;;;;;8.15;4.72;;;;;;;8.34;39.95;100070.31;4324586;33;33757;-92
2022/03/09 10:45:33;;;;;;;7.80;5.03;;;;;;;8.12;40.44;100062.53;4321535;33;34618;-92
2022/03/09 10:48:16;;;;;;;4.50;3.60;;;;;;;8.20;40.46;100066.84;4326066;33;32550;-92
2022/03/09 10:54:04;;;;;;;7.85;3.25;;;;;;;8.56;39.83;100054.88;4301526;33;35369;-92
2022/03/09 10:57:15;;;;;;;;;;;;;;;8.70;40.12;100045.41;4322725;33;34673;-92
2022/03/09 11:02:50;;;;;;;6.43;3.42;;;;;;;8.61;40.43;100043.66;4326245;33;33681;-92
2022/03/09 11:05:29;;;;;;;6.62;3.58;;;;;;;8.67;40.72;100042.81;4315691;33;34245;-90
2022/03/09 11:08:42;;;;;;;6.55;3.37;;;;;;;8.74;40.11;100034.19;4308352;33;33996;-93
2022/03/09 11:11:30;;;;;;;9.57;4.50;;;;;;;8.83;40.10;100043.66;4331973;33;34699;-93
2022/03/09 11:14:11;;;;;;;5.78;3.85;;;;;;;8.87;39.98;100040.22;4313241;33;33259;-92
2022/03/09 11:17:16;;;;;;;6.15;4.00;;;;;;;8.57;40.88;100041.09;4314065;33;34306;-92
2022/03/09 11:27:39;;;;;;;8.18;4.85;;;;;;;9.09;40.21;100031.56;4313498;33;33582;-92
2022/03/09 11:30:38;;;;;;;7.03;4.12;;;;;;;9.08;40.03;100028.97;4316649;33;34768;-93
2022/03/09 11:33:40;;;;;;;6.80;4.30;;;;;;;8.93;40.76;100025.53;4313551;33;34308;-94
2022/03/09 11:37:01;;;;;;;7.05;4.28;;;;;;;8.90;40.39;100035.91;4317193;33;32403;-95
2022/03/09 11:48:17;;;;;;;4.90;2.85;;;;;;;9.30;39.73;100014.25;4204652;33;34197;-95
2022/03/09 11:54:08;;;;;;;5.95;3.35;;;;;;;9.43;38.51;100003.00;4207459;34;33189;-94
2022/03/09 11:56:52;;;;;;;6.00;3.22;;;;;;;9.30;38.91;100009.06;4205994;33;34102;-93
2022/03/09 11:59:27;;;;;;;3.78;2.70;;;;;;;9.22;38.82;100003.06;4210342;33;34249;-96
2022/03/09 12:02:14;;;;;;;6.62;3.35;;;;;;;9.50;38.79;100001.25;4207685;34;34896;-94
2022/03/09 12:04:49;;;;;;;7.07;3.28;;;;;;;9.28;39.20;100010.81;4207006;34;33851;-93
2022/03/09 12:07:59;;;;;;;5.65;3.22;;;;;;;8.79;40.03;100009.16;4233132;33;37524;-95
2022/03/09 12:10:54;;;;;;;5.45;3.30;;;;;;;8.74;40.41;100005.72;4282612;33;34180;-93
2022/03/09 12:17:04;;;;;;;6.37;2.87;;;;;;;9.51;38.66;99992.63;4280400;33;33507;-94
2022/03/09 12:20:41;;;;;;;5.62;3.33;;;;;;;9.30;38.91;99981.47;4293258;33;34123;-95
2022/03/09 12:23:24;;;;;;;4.95;3.15;;;;;;;9.42;38.90;99977.97;4282555;33;34316;-92
2022/03/09 12:26:12;;;;;;;5.93;3.47;;;;;;;9.69;38.52;99995.13;4318550;33;34128;-95
2022/03/09 12:28:52;;;;;;;6.10;3.28;;;;;;;9.49;38.52;99978.81;4326784;33;33651;-92
2022/03/09 12:31:26;;;;;;;6.78;3.55;;;;;;;9.54;38.52;99980.53;4329397;33;34105;-92
2022/03/09 12:34:08;;;;;;;5.75;3.28;;;;;;;9.58;37.96;99982.22;4311916;33;34274;-94
2022/03/09 12:36:40;;;;;;;5.75;3.08;;;;;;;9.73;38.10;99991.63;4311967;33;34175;-93